Time;durP1;ratioP1;P1;durP2;ratioP2;P2;SDS_P1;SDS_P2;PMS_P1;PMS_P2;Temp;Humidity;BMP_temperature;BMP_pressure;BME280_temperature;BME280_humidity;BME280_pressure;Samples;Min_cycle;Max_cycle;Signal;HPM_P1;HPM_P2
2022/07/21 00:01:23;;;;;;;3.90;3.53;;;20.70;99.90;;;;;;5073989;28;20202;-74
2022/07/21 00:03:49;;;;;;;4.83;3.60;;;20.70;99.90;;;;;;5075605;28;20431;-75
2022/07/21 00:06:15;;;;;;;4.53;3.07;;;20.70;99.90;;;;;;5075221;28;20412;-74
2022/07/21 00:08:40;;;;;;;6.77;3.80;;;20.70;99.90;;;;;;5075316;28;20249;-74
2022/07/21 00:11:06;;;;;;;6.10;3.57;;;20.70;99.90;;;;;;5075340;28;20194;-74
2022/07/21 00:13:31;;;;;;;3.87;3.10;;;20.70;99.90;;;;;;5075461;28;20166;-74
2022/07/21 00:15:57;;;;;;;4.37;3.70;;;20.70;99.90;;;;;;5074641;28;20623;-75
2022/07/21 00:18:24;;;;;;;4.93;4.03;;;20.70;99.90;;;;;;5074808;28;20175;-74
2022/07/21 00:20:49;;;;;;;4.40;3.67;;;20.80;99.90;;;;;;5074434;28;20456;-75
2022/07/21 00:23:15;;;;;;;5.20;4.20;;;20.60;99.90;;;;;;5074286;28;20404;-75
2022/07/21 00:25:41;;;;;;;6.67;4.10;;;20.60;99.90;;;;;;5074401;28;20235;-74
2022/07/21 00:28:06;;;;;;;4.20;3.43;;;20.50;99.90;;;;;;5073302;28;20170;-75
2022/07/21 00:30:33;;;;;;;4.07;3.23;;;20.40;99.90;;;;;;5074582;28;20204;-75
2022/07/21 00:32:59;;;;;;;5.23;4.73;;;20.40;99.90;;;;;;5074658;28;20231;-74
2022/07/21 00:35:24;;;;;;;3.93;3.47;;;20.40;99.90;;;;;;5074143;28;20404;-75
2022/07/21 00:37:50;;;;;;;5.27;4.00;;;20.30;99.90;;;;;;5074619;28;20182;-75
2022/07/21 00:40:15;;;;;;;4.70;4.20;;;20.30;99.90;;;;;;5074371;28;20251;-75
2022/07/21 00:42:42;;;;;;;4.63;4.23;;;20.20;99.90;;;;;;5074236;28;20198;-75
2022/07/21 00:45:09;;;;;;;4.47;4.07;;;20.20;99.90;;;;;;5073703;28;20166;-74
2022/07/21 00:47:35;;;;;;;4.67;4.10;;;20.20;99.90;;;;;;5074178;28;20400;-74
2022/07/21 00:50:05;;;;;;;5.93;4.67;;;20.20;99.90;;;;;;5073659;28;20428;-75
2022/07/21 00:52:30;;;;;;;5.03;4.47;;;20.20;99.90;;;;;;5072464;28;20432;-75
2022/07/21 00:54:56;;;;;;;4.70;4.00;;;20.20;99.90;;;;;;5073247;28;20916;-74
2022/07/21 00:57:22;;;;;;;5.47;4.30;;;20.30;99.90;;;;;;5073282;28;20174;-75
2022/07/21 00:59:47;;;;;;;4.83;4.20;;;20.30;99.90;;;;;;5073386;28;20198;-74
2022/07/21 01:02:13;;;;;;;4.13;3.73;;;20.30;99.90;;;;;;5073299;28;20192;-74
2022/07/21 01:04:39;;;;;;;6.00;4.57;;;20.30;99.90;;;;;;5073162;28;20245;-74
2022/07/21 01:07:06;;;;;;;6.30;4.60;;;20.30;99.90;;;;;;5073397;28;20174;-74
2022/07/21 01:09:33;;;;;;;7.00;5.50;;;20.40;99.90;;;;;;5073150;28;20193;-74
2022/07/21 01:12:00;;;;;;;6.10;4.87;;;20.30;99.90;;;;;;5073510;28;20988;-75
2022/07/21 01:14:26;;;;;;;6.63;5.63;;;20.30;99.90;;;;;;5073023;28;21090;-74
2022/07/21 01:16:52;;;;;;;8.80;4.87;;;20.30;99.90;;;;;;5073465;28;20409;-75
2022/07/21 01:19:17;;;;;;;6.93;5.57;;;20.30;99.90;;;;;;5073047;28;20451;-74
2022/07/21 01:21:45;;;;;;;5.57;4.63;;;20.20;99.90;;;;;;5073051;28;20455;-74
2022/07/21 01:24:11;;;;;;;8.37;5.30;;;20.20;99.90;;;;;;5072790;28;20174;-73
2022/07/21 01:26:47;;;;;;;6.73;5.33;;;20.20;99.90;;;;;;5073193;28;20407;-75
2022/07/21 01:29:13;;;;;;;6.00;4.70;;;20.20;99.90;;;;;;5073206;28;20186;-75
2022/07/21 01:31:41;;;;;;;7.57;5.20;;;20.20;99.90;;;;;;5072847;28;20415;-75
2022/07/21 01:34:07;;;;;;;6.97;5.10;;;20.10;99.90;;;;;;5072868;28;20401;-74
2022/07/21 01:36:33;;;;;;;8.90;4.83;;;20.20;99.90;;;;;;5071466;28;20470;-74
2022/07/21 01:41:43;;;;;;;6.33;4.50;;;20.20;99.90;;;;;;5072756;28;20624;-74
2022/07/21 01:44:11;;;;;;;5.30;4.67;;;20.10;99.90;;;;;;5072867;28;20491;-74
2022/07/21 01:46:46;;;;;;;6.47;4.90;;;20.10;99.90;;;;;;5072760;28;20170;-74
2022/07/21 01:49:14;;;;;;;7.53;5.20;;;20.10;99.90;;;;;;5072779;28;20543;-75
2022/07/21 01:51:40;;;;;;;8.47;5.97;;;20.10;99.90;;;;;;5071364;28;20433;-75
2022/07/21 01:54:07;;;;;;;5.80;5.17;;;20.10;99.90;;;;;;5072644;28;20411;-75
2022/07/21 01:56:34;;;;;;;5.77;4.90;;;20.10;99.90;;;;;;5072588;28;20573;-74
2022/07/21 01:59:00;;;;;;;8.20;5.47;;;20.10;99.90;;;;;;5072800;28;20401;-75
2022/07/21 02:01:28;;;;;;;6.63;5.03;;;20.20;99.90;;;;;;5071821;28;20551;-74
2022/07/21 02:03:56;;;;;;;5.20;4.50;;;20.20;99.90;;;;;;5073532;28;20166;-75
2022/07/21 02:06:21;;;;;;;10.70;6.60;;;20.10;99.90;;;;;;5072971;28;20408;-75
2022/07/21 02:08:47;;;;;;;7.83;5.47;;;20.10;99.90;;;;;;5074260;28;20450;-75
2022/07/21 02:11:14;;;;;;;8.03;5.87;;;20.10;99.90;;;;;;5073667;28;20452;-75
2022/07/21 02:13:40;;;;;;;9.90;6.17;;;20.10;99.90;;;;;;5073677;28;20598;-74
2022/07/21 02:16:07;;;;;;;7.37;6.23;;;20.10;99.90;;;;;;5074477;28;20490;-74
2022/07/21 02:18:33;;;;;;;6.43;5.80;;;20.10;99.90;;;;;;5074803;28;20400;-74
2022/07/21 02:20:58;;;;;;;8.00;6.30;;;20.10;99.90;;;;;;5073065;28;20605;-75
2022/07/21 02:23:24;;;;;;;7.57;6.20;;;20.10;99.90;;;;;;5071171;28;20191;-74
2022/07/21 02:25:52;;;;;;;8.70;5.97;;;20.10;99.90;;;;;;5071528;28;20158;-74
2022/07/21 02:28:18;;;;;;;6.83;5.60;;;20.00;99.90;;;;;;5071741;28;20407;-74
2022/07/21 02:30:44;;;;;;;9.30;4.97;;;20.00;99.90;;;;;;5073459;28;20452;-75
2022/07/21 02:33:09;;;;;;;5.57;4.77;;;20.00;99.90;;;;;;5074112;28;20936;-74
2022/07/21 02:35:35;;;;;;;10.37;5.63;;;20.00;99.90;;;;;;5072730;28;20642;-75
2022/07/21 02:38:00;;;;;;;7.83;5.43;;;20.00;99.90;;;;;;5074062;28;20166;-74
2022/07/21 02:40:26;;;;;;;9.40;5.83;;;19.90;99.90;;;;;;5072077;28;20213;-74
2022/07/21 02:42:52;;;;;;;7.37;5.67;;;19.80;99.90;;;;;;5072778;28;20216;-75
2022/07/21 02:45:17;;;;;;;10.30;5.67;;;19.80;99.90;;;;;;5072318;28;20473;-75
2022/07/21 02:48:05;;;;;;;6.90;5.40;;;19.80;99.90;;;;;;5071753;28;20657;-74
2022/07/21 02:50:33;;;;;;;7.27;4.87;;;19.80;99.90;;;;;;5073021;28;20195;-74
2022/07/21 02:53:08;;;;;;;6.80;6.00;;;19.80;99.90;;;;;;5071152;28;20432;-75
2022/07/21 02:55:35;;;;;;;9.70;5.77;;;19.80;99.90;;;;;;5072026;28;20479;-74
2022/07/21 02:58:18;;;;;;;10.10;6.70;;;19.80;99.90;;;;;;5071940;28;20405;-73
2022/07/21 03:00:57;;;;;;;6.70;5.97;;;19.80;99.90;;;;;;5071395;28;20476;-74
2022/07/21 03:03:24;;;;;;;5.97;5.03;;;19.80;99.90;;;;;;5071865;28;20397;-74
2022/07/21 03:05:51;;;;;;;5.73;4.73;;;19.80;99.90;;;;;;5071092;28;20422;-74
2022/07/21 03:08:17;;;;;;;5.50;4.23;;;19.80;99.90;;;;;;5071385;28;20400;-74
2022/07/21 03:10:43;;;;;;;7.70;4.90;;;19.70;99.90;;;;;;5071299;28;20901;-73
2022/07/21 03:13:09;;;;;;;5.43;4.90;;;19.70;99.90;;;;;;5071244;28;20404;-74
2022/07/21 03:15:35;;;;;;;6.40;5.80;;;19.70;99.90;;;;;;5071005;28;20409;-74
2022/07/21 03:18:01;;;;;;;45.63;26.73;;;19.70;99.90;;;;;;5071392;28;20458;-74
2022/07/21 03:20:29;;;;;;;9.00;6.23;;;19.70;99.90;;;;;;5074709;28;20483;-74
2022/07/21 03:22:55;;;;;;;5.43;4.97;;;19.70;99.90;;;;;;5075020;28;20172;-73
2022/07/21 03:25:21;;;;;;;5.13;4.20;;;19.70;99.90;;;;;;5074637;28;20491;-74
2022/07/21 03:27:47;;;;;;;6.27;5.63;;;19.70;99.90;;;;;;5075131;28;20163;-75
2022/07/21 03:30:14;;;;;;;7.13;5.13;;;19.60;99.90;;;;;;5074090;28;20937;-74
2022/07/21 03:32:40;;;;;;;6.40;5.73;;;19.60;99.90;;;;;;5075119;28;20864;-74
2022/07/21 03:35:08;;;;;;;5.53;4.70;;;19.50;99.90;;;;;;5074620;28;20466;-74
2022/07/21 03:37:44;;;;;;;8.27;5.93;;;19.50;99.90;;;;;;5075691;28;20492;-75
2022/07/21 03:40:12;;;;;;;7.20;5.30;;;19.50;99.90;;;;;;5075421;28;20525;-75
2022/07/21 03:42:37;;;;;;;6.13;4.30;;;19.50;99.90;;;;;;5075282;28;20405;-75
2022/07/21 03:45:04;;;;;;;6.57;4.90;;;19.50;99.90;;;;;;5075409;28;20904;-75
2022/07/21 03:47:29;;;;;;;6.50;5.90;;;19.50;99.90;;;;;;5075499;28;20219;-75
2022/07/21 03:49:55;;;;;;;7.80;5.53;;;19.50;99.90;;;;;;5075522;28;20511;-75
2022/07/21 03:52:20;;;;;;;6.90;4.93;;;19.40;99.90;;;;;;5077300;28;20635;-74
2022/07/21 03:54:46;;;;;;;6.27;4.90;;;19.40;99.90;;;;;;5073545;28;20170;-75
2022/07/21 03:57:11;;;;;;;6.23;5.40;;;19.40;99.90;;;;;;5075005;28;20166;-74
2022/07/21 03:59:37;;;;;;;5.20;4.70;;;19.40;99.90;;;;;;5074800;28;20190;-74
2022/07/21 04:02:03;;;;;;;5.30;4.73;;;19.40;99.90;;;;;;5074606;28;20209;-74
2022/07/21 04:04:28;;;;;;;5.83;4.60;;;19.30;99.90;;;;;;5073955;28;20167;-74
2022/07/21 04:06:54;;;;;;;6.10;5.50;;;19.30;99.90;;;;;;5076102;28;20165;-74
2022/07/21 04:09:19;;;;;;;7.80;4.90;;;19.30;99.90;;;;;;5074049;28;20269;-74
2022/07/21 04:11:45;;;;;;;5.83;5.23;;;19.30;99.90;;;;;;5074151;28;20201;-74
2022/07/21 04:14:11;;;;;;;10.07;5.57;;;19.30;99.90;;;;;;5072622;28;20170;-74
2022/07/21 04:16:36;;;;;;;6.27;4.60;;;19.30;99.90;;;;;;5073974;28;20170;-75
2022/07/21 04:19:02;;;;;;;7.10;4.90;;;19.40;99.90;;;;;;5073216;28;20178;-75
2022/07/21 04:21:27;;;;;;;6.97;4.93;;;19.40;99.90;;;;;;5073105;28;20613;-74
2022/07/21 04:23:53;;;;;;;6.70;5.17;;;19.50;99.90;;;;;;5073913;28;20253;-74
2022/07/21 04:26:18;;;;;;;4.73;4.20;;;19.50;99.90;;;;;;5073656;28;20169;-74
2022/07/21 04:28:44;;;;;;;6.20;5.07;;;19.50;99.90;;;;;;5073760;28;20171;-74
2022/07/21 04:31:10;;;;;;;5.30;4.80;;;19.50;99.90;;;;;;5072785;28;20197;-73
2022/07/21 04:33:35;;;;;;;8.63;5.37;;;19.50;99.90;;;;;;5074167;28;20171;-74
2022/07/21 04:36:01;;;;;;;5.83;4.03;;;19.60;99.90;;;;;;5073368;28;20171;-74
2022/07/21 04:38:26;;;;;;;5.10;4.60;;;19.60;99.90;;;;;;5073563;28;20174;-74
2022/07/21 04:40:52;;;;;;;8.23;5.20;;;19.70;99.90;;;;;;5073416;28;20197;-74
2022/07/21 04:43:17;;;;;;;5.90;5.20;;;19.70;99.90;;;;;;5073362;28;20170;-74
2022/07/21 04:45:43;;;;;;;11.23;5.13;;;19.70;99.90;;;;;;5073068;28;20170;-74
2022/07/21 04:48:08;;;;;;;6.10;5.00;;;19.80;99.90;;;;;;5073358;28;20170;-74
2022/07/21 04:50:34;;;;;;;5.07;4.63;;;19.80;99.90;;;;;;5073167;28;20277;-74
2022/07/21 04:53:00;;;;;;;6.00;4.57;;;19.90;99.90;;;;;;5073200;28;20186;-74
2022/07/21 04:55:25;;;;;;;4.53;3.80;;;19.90;99.90;;;;;;5072980;28;20224;-74
2022/07/21 04:57:53;;;;;;;7.40;5.17;;;19.90;99.90;;;;;;5074083;28;20257;-74
2022/07/21 05:00:21;;;;;;;6.60;4.63;;;20.00;99.90;;;;;;5075648;28;20305;-75
2022/07/21 05:02:47;;;;;;;9.90;5.07;;;20.00;99.90;;;;;;5073775;28;20415;-75
2022/07/21 05:05:13;;;;;;;6.40;4.53;;;20.10;99.90;;;;;;5073507;28;20401;-75
2022/07/21 05:07:39;;;;;;;5.17;4.30;;;20.10;99.90;;;;;;5075099;28;20477;-76
2022/07/21 05:10:10;;;;;;;6.40;4.63;;;20.20;99.90;;;;;;5074027;28;20683;-74
2022/07/21 05:12:36;;;;;;;6.90;3.50;;;20.30;99.90;;;;;;5072887;28;20219;-74
2022/07/21 05:15:04;;;;;;;5.67;4.40;;;20.40;99.90;;;;;;5072888;28;20405;-75
2022/07/21 05:17:30;;;;;;;5.70;4.00;;;20.30;99.90;;;;;;5072854;28;20393;-74
2022/07/21 05:19:55;;;;;;;6.93;5.23;;;20.40;99.90;;;;;;5072681;28;20438;-74
2022/07/21 05:22:21;;;;;;;5.73;4.80;;;20.30;99.90;;;;;;5072754;28;20165;-74
2022/07/21 05:24:46;;;;;;;4.20;3.80;;;20.30;99.90;;;;;;5072420;28;20194;-74
2022/07/21 05:27:12;;;;;;;5.33;4.37;;;20.30;99.90;;;;;;5071331;28;20174;-74
2022/07/21 05:29:37;;;;;;;7.13;4.47;;;20.20;99.90;;;;;;5074076;28;20182;-75
2022/07/21 05:32:03;;;;;;;3.77;3.47;;;20.10;99.90;;;;;;5074145;28;20201;-75
2022/07/21 05:34:29;;;;;;;5.80;4.57;;;20.10;99.90;;;;;;5073555;28;20170;-75
2022/07/21 05:36:55;;;;;;;7.60;4.27;;;20.00;99.90;;;;;;5072966;28;20458;-74
2022/07/21 05:39:20;;;;;;;4.77;4.30;;;20.00;99.90;;;;;;5072362;28;20186;-75
2022/07/21 05:41:46;;;;;;;3.57;3.27;;;20.00;99.90;;;;;;5072233;28;20198;-74
2022/07/21 05:44:12;;;;;;;5.67;3.87;;;20.00;99.90;;;;;;5072620;28;20249;-74
2022/07/21 05:46:38;;;;;;;4.67;4.20;;;20.00;99.90;;;;;;5072192;28;20400;-74
2022/07/21 05:49:03;;;;;;;5.10;3.97;;;20.00;99.90;;;;;;5072191;28;20166;-74
2022/07/21 05:51:29;;;;;;;5.90;4.13;;;19.90;99.90;;;;;;5070818;28;20303;-74
2022/07/21 05:53:54;;;;;;;4.57;4.13;;;19.80;99.90;;;;;;5072222;28;20170;-74
2022/07/21 05:56:20;;;;;;;6.83;4.27;;;19.80;99.90;;;;;;5072835;28;20219;-75
2022/07/21 05:58:45;;;;;;;5.60;4.23;;;19.80;99.90;;;;;;5072476;28;20174;-75
2022/07/21 06:01:16;;;;;;;8.30;5.03;;;19.80;99.90;;;;;;5073471;28;20201;-75
2022/07/21 06:03:44;;;;;;;5.03;4.10;;;19.70;99.90;;;;;;5073472;28;20451;-75
2022/07/21 06:06:12;;;;;;;4.50;3.73;;;19.70;99.90;;;;;;5073395;28;20392;-75
2022/07/21 06:08:39;;;;;;;4.77;4.10;;;19.70;99.90;;;;;;5073303;28;20401;-75
2022/07/21 06:11:05;;;;;;;5.23;4.57;;;19.70;99.90;;;;;;5073357;28;20420;-75
2022/07/21 06:13:30;;;;;;;5.83;5.23;;;19.80;99.90;;;;;;5073333;28;20425;-75
2022/07/21 06:15:56;;;;;;;4.00;3.70;;;19.80;99.90;;;;;;5073677;28;20404;-75
2022/07/21 06:18:22;;;;;;;5.43;3.60;;;19.90;99.90;;;;;;5073737;28;20215;-75
2022/07/21 06:20:47;;;;;;;3.73;3.30;;;20.10;99.90;;;;;;5073938;28;20197;-75
2022/07/21 06:23:13;;;;;;;5.10;3.50;;;20.30;99.90;;;;;;5073997;28;20194;-76
2022/07/21 06:25:38;;;;;;;3.30;2.80;;;20.50;99.90;;;;;;5072328;28;20177;-74
2022/07/21 06:28:04;;;;;;;5.13;3.50;;;20.60;99.90;;;;;;5071736;28;20198;-74
2022/07/21 06:30:30;;;;;;;5.50;2.80;;;20.70;99.90;;;;;;5072211;28;20544;-75
2022/07/21 06:32:55;;;;;;;2.60;2.30;;;20.80;99.90;;;;;;5073475;28;20173;-76
2022/07/21 06:35:21;;;;;;;2.40;2.20;;;20.80;99.90;;;;;;5073383;28;20166;-75
2022/07/21 06:37:47;;;;;;;3.03;2.27;;;20.80;99.90;;;;;;5073413;28;20172;-75
2022/07/21 06:40:13;;;;;;;2.57;2.23;;;20.80;99.90;;;;;;5072231;28;20772;-76
2022/07/21 06:42:39;;;;;;;2.60;2.27;;;21.00;99.90;;;;;;5073563;28;20169;-76
2022/07/21 06:45:05;;;;;;;2.10;1.90;;;21.60;99.90;;;;;;5071026;28;20412;-75
2022/07/21 06:47:30;;;;;;;1.63;1.53;;;22.50;99.90;;;;;;5071883;28;20410;-75
2022/07/21 06:50:01;;;;;;;2.00;1.30;;;23.20;99.90;;;;;;5075319;28;20413;-75
2022/07/21 06:52:27;;;;;;;1.70;1.60;;;23.80;99.90;;;;;;5073275;28;20178;-76
2022/07/21 06:54:53;;;;;;;1.53;1.43;;;24.40;99.90;;;;;;5075679;28;20411;-75
2022/07/21 06:57:18;;;;;;;2.83;2.10;;;24.70;99.90;;;;;;5075490;28;20249;-75
2022/07/21 06:59:44;;;;;;;2.10;1.60;;;25.10;99.90;;;;;;5075333;28;20269;-75
2022/07/21 07:02:09;;;;;;;2.70;1.90;;;25.40;99.90;;;;;;5075348;28;20229;-75
2022/07/21 07:04:35;;;;;;;2.00;1.80;;;26.00;99.90;;;;;;5075118;28;20169;-75
2022/07/21 07:07:00;;;;;;;1.90;1.67;;;26.40;99.90;;;;;;5075453;28;20174;-75
2022/07/21 07:09:26;;;;;;;6.53;3.10;;;26.70;99.90;;;;;;5075176;28;20186;-75
2022/07/21 07:11:52;;;;;;;2.40;1.80;;;26.90;99.90;;;;;;5075194;28;20189;-75
2022/07/21 07:14:18;;;;;;;2.43;1.97;;;27.40;99.90;;;;;;5074909;28;20408;-75
2022/07/21 07:16:44;;;;;;;4.00;2.20;;;28.00;99.90;;;;;;5075143;28;20235;-75
2022/07/21 07:19:09;;;;;;;2.80;2.07;;;28.30;99.90;;;;;;5076640;28;20424;-75
2022/07/21 07:21:35;;;;;;;2.30;2.07;;;28.80;99.90;;;;;;5077132;28;20194;-76
2022/07/21 07:24:01;;;;;;;2.30;2.10;;;29.10;99.90;;;;;;5076543;28;20682;-76
2022/07/21 07:26:27;;;;;;;2.90;2.07;;;28.90;99.90;;;;;;5074844;28;20188;-75
2022/07/21 07:28:53;;;;;;;2.43;2.23;;;28.20;99.90;;;;;;5075306;28;20404;-75
2022/07/21 07:31:19;;;;;;;2.93;2.73;;;27.80;99.90;;;;;;5075536;28;20254;-74
2022/07/21 07:33:44;;;;;;;3.97;2.80;;;27.30;99.90;;;;;;5075643;28;20162;-75
2022/07/21 07:36:12;;;;;;;2.27;2.07;;;27.10;99.90;;;;;;5074637;28;20174;-75
2022/07/21 07:38:38;;;;;;;1.90;1.80;;;27.80;99.90;;;;;;5074536;28;20170;-77
2022/07/21 07:41:04;;;;;;;2.70;2.50;;;28.60;99.90;;;;;;5076256;28;20460;-76
2022/07/21 07:43:30;;;;;;;2.73;2.50;;;28.80;99.90;;;;;;5076159;28;20924;-76
2022/07/21 07:45:56;;;;;;;2.47;2.27;;;28.80;99.90;;;;;;5074321;28;20162;-76
2022/07/21 07:48:21;;;;;;;2.57;2.37;;;28.70;99.90;;;;;;5073287;28;20451;-75
2022/07/21 07:50:47;;;;;;;4.70;2.97;;;28.00;99.90;;;;;;5074492;28;20193;-74
2022/07/21 07:53:12;;;;;;;3.20;2.90;;;27.50;99.90;;;;;;5074387;28;20251;-75
2022/07/21 07:55:38;;;;;;;3.20;2.57;;;26.90;99.90;;;;;;5074110;28;20212;-75
2022/07/21 07:58:04;;;;;;;3.87;3.57;;;26.50;99.90;;;;;;5074427;28;20536;-75
2022/07/21 08:00:30;;;;;;;7.83;3.10;;;26.10;99.90;;;;;;5072580;28;20205;-75
2022/07/21 08:02:55;;;;;;;4.20;3.13;;;26.10;99.90;;;;;;5074346;28;20201;-75
2022/07/21 08:05:21;;;;;;;4.27;3.53;;;27.00;99.90;;;;;;5072791;28;20216;-76
2022/07/21 08:07:46;;;;;;;3.83;2.97;;;28.10;99.90;;;;;;5074166;28;20528;-75
2022/07/21 08:10:13;;;;;;;3.33;3.03;;;29.30;99.90;;;;;;5074088;28;20263;-75
2022/07/21 08:12:39;;;;;;;3.20;2.63;;;29.70;99.90;;;;;;5074111;28;20159;-75
2022/07/21 08:15:05;;;;;;;2.70;2.50;;;30.00;99.90;;;;;;5073815;28;20446;-75
2022/07/21 08:17:31;;;;;;;3.70;3.40;;;31.10;99.90;;;;;;5074022;28;20757;-75
2022/07/21 08:19:57;;;;;;;2.80;2.60;;;32.40;94.30;;;;;;5073755;28;20657;-75
2022/07/21 08:22:22;;;;;;;3.10;2.90;;;33.10;87.70;;;;;;5073898;28;20212;-76
2022/07/21 08:24:48;;;;;;;3.30;3.00;;;33.40;81.60;;;;;;5073600;28;20526;-75
2022/07/21 08:27:13;;;;;;;3.43;3.13;;;33.30;77.60;;;;;;5073884;28;20209;-75
2022/07/21 08:29:39;;;;;;;4.27;3.87;;;32.20;78.20;;;;;;5072478;28;20182;-75
2022/07/21 08:32:05;;;;;;;3.20;2.87;;;31.50;84.70;;;;;;5072463;28;20174;-75
2022/07/21 08:34:30;;;;;;;4.37;3.97;;;31.30;88.50;;;;;;5073366;28;20536;-76
2022/07/21 08:36:57;;;;;;;3.60;3.30;;;31.80;90.20;;;;;;5072245;28;20253;-75
2022/07/21 08:39:22;;;;;;;4.93;3.50;;;32.40;82.20;;;;;;5073462;28;20430;-76
2022/07/21 08:41:49;;;;;;;4.60;4.20;;;32.70;81.10;;;;;;5073429;28;20448;-76
2022/07/21 08:44:14;;;;;;;2.83;2.63;;;32.80;83.10;;;;;;5073334;28;20189;-76
2022/07/21 08:46:42;;;;;;;4.70;4.20;;;32.90;82.10;;;;;;5073413;28;20392;-75
2022/07/21 08:49:09;;;;;;;3.83;3.43;;;32.50;75.70;;;;;;5073372;28;20206;-75
2022/07/21 08:51:35;;;;;;;4.43;4.00;;;32.00;79.50;;;;;;5073114;28;20477;-74
2022/07/21 08:54:02;;;;;;;4.50;3.67;;;32.20;77.20;;;;;;5072040;28;20436;-75
2022/07/21 08:56:28;;;;;;;3.90;3.60;;;32.40;77.70;;;;;;5072972;28;20466;-75
2022/07/21 08:58:54;;;;;;;4.70;4.17;;;31.50;79.30;;;;;;5073125;28;20431;-75
2022/07/21 09:01:23;;;;;;;3.80;3.50;;;30.90;82.90;;;;;;5071828;28;20456;-75
2022/07/21 09:03:52;;;;;;;4.37;3.50;;;30.10;87.30;;;;;;5073045;28;20159;-75
2022/07/21 09:06:19;;;;;;;3.23;2.53;;;29.70;89.70;;;;;;5072472;28;20400;-75
2022/07/21 09:08:46;;;;;;;3.40;3.10;;;29.60;90.70;;;;;;5073000;28;20432;-75
2022/07/21 09:11:19;;;;;;;4.40;2.47;;;29.90;87.90;;;;;;5072973;28;20403;-75
2022/07/21 09:14:04;;;;;;;3.10;2.67;;;30.20;84.80;;;;;;5073012;28;20741;-75
2022/07/21 09:16:34;;;;;;;3.07;2.77;;;30.10;88.00;;;;;;5072262;28;20577;-75
2022/07/21 09:19:00;;;;;;;2.80;2.60;;;30.00;86.70;;;;;;5072741;28;20412;-75
2022/07/21 09:21:26;;;;;;;3.23;2.93;;;29.80;87.00;;;;;;5072611;28;20453;-75
2022/07/21 09:23:52;;;;;;;2.80;2.60;;;29.40;88.00;;;;;;5072674;28;20163;-74
2022/07/21 09:26:17;;;;;;;3.33;3.03;;;29.00;90.20;;;;;;5072317;28;20436;-75
2022/07/21 09:28:43;;;;;;;3.30;3.00;;;28.60;92.60;;;;;;5072707;28;20190;-75
2022/07/21 09:31:11;;;;;;;6.20;3.03;;;28.30;93.00;;;;;;5072409;28;20279;-75
2022/07/21 09:33:45;;;;;;;3.47;2.70;;;27.90;95.40;;;;;;5072384;28;20169;-74
2022/07/21 09:36:16;;;;;;;3.80;2.70;;;27.70;96.00;;;;;;5072245;28;20436;-74
2022/07/21 09:38:51;;;;;;;2.80;2.60;;;27.40;98.90;;;;;;5072463;28;20412;-75
2022/07/21 09:41:19;;;;;;;3.90;3.10;;;27.50;99.90;;;;;;5071038;28;20520;-75
2022/07/21 09:43:50;;;;;;;3.23;2.80;;;27.70;99.90;;;;;;5072267;28;20397;-75
2022/07/21 09:46:18;;;;;;;3.13;2.83;;;28.00;99.90;;;;;;5070810;28;20409;-75
2022/07/21 09:48:50;;;;;;;4.03;2.80;;;28.10;97.90;;;;;;5072369;28;20893;-74
2022/07/21 09:51:30;;;;;;;3.20;2.63;;;27.70;98.20;;;;;;5072270;28;20818;-75
2022/07/21 09:54:02;;;;;;;3.30;2.50;;;27.30;99.60;;;;;;5072195;28;20400;-75
2022/07/21 09:56:34;;;;;;;3.40;2.83;;;27.20;99.90;;;;;;5071997;28;20384;-74
2022/07/21 09:59:01;;;;;;;2.50;2.30;;;27.10;99.90;;;;;;5072044;28;20991;-75
2022/07/21 10:01:28;;;;;;;2.93;2.43;;;26.80;99.90;;;;;;5072148;28;20443;-75
2022/07/21 10:03:55;;;;;;;2.63;2.43;;;26.80;99.90;;;;;;5072093;28;20397;-75
2022/07/21 10:06:25;;;;;;;2.43;2.23;;;27.10;99.90;;;;;;5072261;28;20416;-74
2022/07/21 10:08:51;;;;;;;2.70;2.43;;;27.50;99.90;;;;;;5070494;28;20503;-75
2022/07/21 10:11:17;;;;;;;4.93;2.80;;;27.70;99.90;;;;;;5071985;28;20401;-75
2022/07/21 10:13:43;;;;;;;3.03;2.73;;;27.80;99.90;;;;;;5071996;28;20412;-75
2022/07/21 10:16:11;;;;;;;2.30;2.10;;;27.80;99.90;;;;;;5071676;28;20166;-75
2022/07/21 10:19:06;;;;;;;3.10;2.10;;;27.50;99.90;;;;;;5071971;28;21101;-74
2022/07/21 10:21:36;;;;;;;6.93;3.10;;;27.00;99.90;;;;;;5066868;28;20502;-74
2022/07/21 10:24:04;;;;;;;3.20;2.90;;;26.50;99.90;;;;;;5071766;28;20491;-75
2022/07/21 10:26:30;;;;;;;3.17;2.73;;;26.10;99.90;;;;;;5071597;28;20405;-75
2022/07/21 10:28:55;;;;;;;4.47;2.53;;;25.80;99.90;;;;;;5071004;28;20405;-75
2022/07/21 10:31:27;;;;;;;2.50;2.20;;;25.60;99.90;;;;;;5071863;28;20174;-75
2022/07/21 10:33:57;;;;;;;3.10;2.80;;;25.50;99.90;;;;;;5071725;28;20189;-74
2022/07/21 10:36:31;;;;;;;2.70;2.17;;;25.20;99.90;;;;;;5070180;28;20947;-75
2022/07/21 10:39:08;;;;;;;2.83;2.63;;;25.10;99.90;;;;;;5070405;28;20417;-75
2022/07/21 10:41:43;;;;;;;3.13;2.83;;;24.90;99.90;;;;;;5071671;28;21035;-75
2022/07/21 10:44:27;;;;;;;3.30;2.70;;;24.90;99.90;;;;;;5071460;28;20391;-75
2022/07/21 10:47:06;;;;;;;3.07;2.87;;;24.90;99.90;;;;;;5071656;28;20750;-74
2022/07/21 10:49:46;;;;;;;3.13;2.80;;;24.80;99.90;;;;;;5071636;28;20865;-75
2022/07/21 10:52:38;;;;;;;3.63;3.33;;;24.90;99.90;;;;;;5071523;28;20431;-75
2022/07/21 10:55:10;;;;;;;3.37;3.07;;;25.00;99.90;;;;;;5071260;28;20474;-75
2022/07/21 10:57:41;;;;;;;3.27;2.97;;;24.90;99.90;;;;;;5071630;28;20405;-75
2022/07/21 11:00:30;;;;;;;4.87;3.23;;;24.90;99.90;;;;;;5071363;28;20427;-75
2022/07/21 11:03:01;;;;;;;3.23;3.03;;;24.70;99.90;;;;;;5071455;28;20958;-75
2022/07/21 11:05:29;;;;;;;3.03;2.70;;;24.60;99.90;;;;;;5071262;28;20858;-75
2022/07/21 11:08:15;;;;;;;5.40;3.20;;;24.40;99.90;;;;;;5071415;28;20511;-74
2022/07/21 11:10:47;;;;;;;5.00;3.97;;;24.20;99.90;;;;;;5071374;28;20451;-75
2022/07/21 11:13:13;;;;;;;4.40;4.00;;;24.20;99.90;;;;;;5071359;28;20411;-74
2022/07/21 11:15:58;;;;;;;4.57;3.93;;;23.90;99.90;;;;;;5071085;28;20397;-75
2022/07/21 11:18:30;;;;;;;5.67;3.43;;;23.80;99.90;;;;;;5071349;28;20393;-75
2022/07/21 11:21:00;;;;;;;4.57;4.03;;;23.70;99.90;;;;;;5071249;28;20448;-75
2022/07/21 11:23:44;;;;;;;4.77;4.23;;;23.70;99.90;;;;;;5071329;28;20438;-75
2022/07/21 11:26:12;;;;;;;5.33;4.10;;;23.50;99.90;;;;;;5071111;28;20384;-75
2022/07/21 11:28:38;;;;;;;5.53;4.50;;;23.50;99.90;;;;;;5071654;28;20401;-75
2022/07/21 11:31:10;;;;;;;6.30;4.90;;;23.40;99.90;;;;;;5071114;28;20485;-75
2022/07/21 11:33:37;;;;;;;5.30;4.20;;;23.30;99.90;;;;;;5070956;28;20412;-74
2022/07/21 11:36:03;;;;;;;5.07;4.50;;;23.00;99.90;;;;;;5070927;28;20952;-74
2022/07/21 11:38:29;;;;;;;5.57;5.07;;;22.80;99.90;;;;;;5071215;28;21015;-74
2022/07/21 11:41:18;;;;;;;3.80;3.40;;;22.50;99.90;;;;;;5072476;28;20460;-74
2022/07/21 11:43:46;;;;;;;4.93;4.10;;;22.30;99.90;;;;;;5074733;28;20249;-74
2022/07/21 11:46:12;;;;;;;6.60;5.30;;;22.10;99.90;;;;;;5074353;28;20445;-74
2022/07/21 11:48:38;;;;;;;4.83;4.00;;;22.00;99.90;;;;;;5074464;28;20433;-74
2022/07/21 11:51:04;;;;;;;5.03;3.83;;;21.70;99.90;;;;;;5074406;28;20847;-74
2022/07/21 11:53:31;;;;;;;4.70;4.20;;;21.60;99.90;;;;;;5074441;28;20236;-74
2022/07/21 11:55:57;;;;;;;4.63;3.27;;;21.50;99.90;;;;;;5074226;28;20442;-74
2022/07/21 11:58:23;;;;;;;5.07;4.57;;;21.30;99.90;;;;;;5074374;28;20404;-74
2022/07/21 12:00:48;;;;;;;6.97;6.37;;;21.20;99.90;;;;;;5074236;28;20198;-74
2022/07/21 12:03:14;;;;;;;5.83;4.23;;;21.20;99.90;;;;;;5074209;28;20173;-74
2022/07/21 12:05:41;;;;;;;10.60;4.20;;;21.20;99.90;;;;;;5074010;28;20189;-74
2022/07/21 12:08:06;;;;;;;4.63;3.57;;;21.10;99.90;;;;;;5074216;28;20166;-74
2022/07/21 12:10:32;;;;;;;5.03;3.73;;;21.00;99.90;;;;;;5072834;28;20863;-74
2022/07/21 12:13:06;;;;;;;6.93;5.90;;;20.90;99.90;;;;;;5074198;28;20181;-74
2022/07/21 12:15:33;;;;;;;6.20;5.10;;;20.70;99.90;;;;;;5073869;28;20244;-74
2022/07/21 12:18:05;;;;;;;8.57;5.27;;;20.70;99.90;;;;;;5073959;28;20409;-74
2022/07/21 12:20:41;;;;;;;4.97;4.40;;;20.70;99.90;;;;;;5073846;28;20456;-74
2022/07/21 12:23:25;;;;;;;4.47;4.10;;;20.70;99.90;;;;;;5073953;28;20388;-74
2022/07/21 12:25:51;;;;;;;5.00;4.60;;;20.70;99.90;;;;;;5072366;28;20408;-74
2022/07/21 12:28:17;;;;;;;4.50;3.73;;;20.70;99.90;;;;;;5073827;28;20408;-74
2022/07/21 12:30:46;;;;;;;4.50;4.00;;;20.80;99.90;;;;;;5073793;28;20428;-74
2022/07/21 12:33:16;;;;;;;6.57;4.43;;;20.80;99.90;;;;;;5073812;28;20651;-74
2022/07/21 12:35:46;;;;;;;5.23;4.73;;;20.90;99.90;;;;;;5073438;28;20396;-74
2022/07/21 12:38:18;;;;;;;4.70;3.60;;;21.00;99.90;;;;;;5073981;28;20401;-74
2022/07/21 12:40:46;;;;;;;5.73;3.93;;;21.00;99.90;;;;;;5073525;28;20498;-74
2022/07/21 12:43:18;;;;;;;5.37;4.73;;;21.00;99.90;;;;;;5073584;28;20410;-74
2022/07/21 12:45:46;;;;;;;5.40;4.27;;;21.10;99.90;;;;;;5073268;28;20397;-74
2022/07/21 12:48:15;;;;;;;5.73;4.80;;;21.10;99.90;;;;;;5073448;28;20404;-74
2022/07/21 12:50:42;;;;;;;4.17;3.80;;;21.10;99.90;;;;;;5073141;28;20424;-74